createdAt,value
2018-07-28T00:00:16.731Z,25.72
2018-07-28T00:01:16.686Z,25.72
2018-07-28T00:02:16.757Z,25.72
2018-07-28T00:03:16.635Z,25.64
2018-07-28T00:04:16.647Z,25.61
2018-07-28T00:05:16.623Z,25.71
2018-07-28T00:06:17.685Z,25.71
2018-07-28T00:07:16.667Z,25.57
2018-07-28T00:08:17.914Z,25.54
2018-07-28T00:09:16.829Z,25.56
2018-07-28T00:10:16.888Z,25.69
2018-07-28T00:11:16.502Z,25.63
2018-07-28T00:12:16.499Z,25.57
2018-07-28T00:13:16.455Z,25.46
2018-07-28T00:14:16.508Z,25.54
2018-07-28T00:15:16.430Z,25.57
2018-07-28T00:16:17.475Z,25.49
2018-07-28T00:17:16.412Z,25.53
2018-07-28T00:18:17.473Z,25.53
2018-07-28T00:19:16.347Z,25.44
2018-07-28T00:20:16.368Z,25.46
2018-07-28T00:21:16.355Z,25.42
2018-07-28T00:23:02.347Z,25.38
2018-07-28T00:24:02.350Z,25.34
2018-07-28T00:25:02.268Z,25.39
2018-07-28T00:26:02.246Z,25.36
2018-07-28T00:27:02.273Z,25.36
2018-07-28T00:28:02.217Z,25.41
2018-07-28T00:29:02.281Z,25.34
2018-07-28T00:30:02.179Z,25.26
2018-07-28T00:31:02.187Z,25.38
2018-07-28T00:32:02.133Z,25.38
2018-07-28T00:33:02.201Z,25.19
2018-07-28T00:34:02.110Z,25.19
2018-07-28T00:35:02.107Z,25.19
2018-07-28T00:36:02.075Z,25.20
2018-07-28T00:37:02.120Z,25.24
2018-07-28T00:38:02.017Z,25.22
2018-07-28T00:39:02.034Z,25.16
2018-07-28T00:40:01.991Z,25.22
2018-07-28T00:41:02.045Z,25.09
2018-07-28T00:42:01.944Z,25.07
2018-07-28T00:43:02.975Z,25.02
2018-07-28T00:44:01.916Z,25.04
2018-07-28T00:45:01.976Z,25.11
2018-07-28T00:46:01.875Z,25.12
2018-07-28T00:47:01.896Z,25.01
2018-07-28T00:48:01.852Z,25.02
2018-07-28T00:49:01.893Z,25.09
2018-07-28T00:50:01.797Z,24.99
2018-07-28T00:51:01.804Z,25.12
2018-07-28T00:52:01.759Z,24.98
2018-07-28T00:53:02.129Z,25.05
2018-07-28T00:54:01.719Z,24.98
2018-07-28T00:55:01.727Z,24.94
2018-07-28T00:56:01.679Z,24.99
2018-07-28T00:57:01.740Z,24.99
2018-07-28T00:58:01.651Z,24.94
2018-07-28T00:59:01.956Z,25.01
2018-07-28T01:00:01.610Z,24.98
2018-07-28T01:01:01.680Z,24.99
2018-07-28T01:02:01.680Z,24.97
2018-07-28T01:03:01.783Z,24.86
2018-07-28T01:04:01.796Z,25.01
2018-07-28T01:05:02.613Z,24.84
2018-07-28T01:06:01.498Z,24.93
2018-07-28T01:07:01.495Z,24.86
2018-07-28T01:08:01.451Z,24.87
2018-07-28T01:09:01.508Z,24.80
2018-07-28T01:10:01.415Z,24.94
2018-07-28T01:11:01.411Z,24.89
2018-07-28T01:12:01.388Z,24.90
2018-07-28T01:13:01.368Z,24.83
2018-07-28T01:14:01.442Z,24.83
2018-07-28T01:15:01.323Z,24.89
2018-07-28T01:16:01.353Z,24.82
2018-07-28T01:17:01.307Z,24.84
2018-07-28T01:18:01.360Z,24.75
2018-07-28T01:19:01.240Z,24.74
2018-07-28T01:20:01.283Z,24.77
2018-07-28T01:21:01.228Z,24.71
2018-07-28T01:22:01.315Z,24.68
2018-07-28T01:23:01.173Z,24.63
2018-07-28T01:24:01.198Z,24.64
2018-07-28T01:25:01.140Z,24.66
2018-07-28T01:26:01.215Z,24.64
2018-07-28T01:27:01.088Z,24.56
2018-07-28T01:28:01.121Z,24.60
2018-07-28T01:29:01.070Z,24.53
2018-07-28T01:30:01.141Z,24.59
2018-07-28T01:31:01.011Z,24.59
2018-07-28T01:32:01.045Z,24.66
2018-07-28T01:33:00.988Z,24.63
2018-07-28T01:34:01.064Z,24.60
2018-07-28T01:35:00.955Z,24.53
2018-07-28T01:36:02.002Z,24.52
2018-07-28T01:37:00.913Z,24.51
2018-07-28T01:38:00.983Z,24.48
2018-07-28T01:39:00.860Z,24.52
2018-07-28T01:40:01.935Z,24.56
2018-07-28T01:41:00.848Z,24.53
2018-07-28T01:42:01.851Z,24.46
2018-07-28T01:43:00.847Z,24.44
2018-07-28T01:44:00.839Z,24.39
2018-07-28T01:45:00.771Z,24.34
2018-07-28T01:46:00.839Z,24.51
2018-07-28T01:47:00.724Z,24.41
2018-07-28T01:48:00.747Z,24.31
2018-07-28T01:49:00.684Z,24.44
2018-07-28T01:50:00.761Z,24.34
2018-07-28T01:51:00.629Z,24.46
2018-07-28T01:52:00.676Z,24.31
2018-07-28T01:53:00.615Z,24.42
2018-07-28T01:54:00.685Z,24.33
2018-07-28T01:55:00.556Z,24.33
2018-07-28T01:56:00.585Z,24.29
2018-07-28T01:57:00.517Z,24.29
2018-07-28T01:58:00.612Z,24.26
2018-07-28T01:59:00.483Z,24.27
2018-07-28T02:00:00.474Z,24.26
2018-07-28T02:01:00.444Z,24.15
2018-07-28T02:02:01.543Z,24.27
2018-07-28T02:03:00.404Z,24.24
2018-07-28T02:04:01.461Z,24.23
2018-07-28T02:05:00.362Z,24.19
2018-07-28T02:06:01.385Z,24.16
2018-07-28T02:07:00.340Z,24.23
2018-07-28T02:08:00.361Z,24.26
2018-07-28T02:09:00.291Z,24.06
2018-07-28T02:10:01.293Z,24.09
2018-07-28T02:11:00.258Z,24.09
2018-07-28T02:12:00.282Z,24.08
2018-07-28T02:13:00.212Z,23.97
2018-07-28T02:14:00.292Z,24.06
2018-07-28T02:15:00.175Z,23.99
2018-07-28T02:16:00.215Z,24.05
2018-07-28T02:17:00.155Z,24.02
2018-07-28T02:18:00.213Z,24.00
2018-07-28T02:19:00.101Z,23.92
2018-07-28T02:20:00.128Z,23.84
2018-07-28T02:21:00.109Z,23.89
2018-07-28T02:22:00.137Z,23.81
2018-07-28T02:23:00.017Z,23.86
2018-07-28T02:24:00.055Z,23.79
2018-07-28T02:24:59.981Z,23.78
2018-07-28T02:26:00.062Z,23.81
2018-07-28T02:26:59.938Z,23.72
2018-07-28T02:27:59.970Z,23.77
2018-07-28T02:28:59.919Z,23.79
2018-07-28T02:30:00.007Z,23.71
2018-07-28T02:30:59.863Z,23.67
2018-07-28T02:31:59.958Z,23.75
2018-07-28T02:32:59.823Z,23.68
2018-07-28T02:33:59.919Z,23.62
2018-07-28T02:34:59.789Z,23.68
2018-07-28T02:35:59.828Z,23.64
2018-07-28T02:36:59.748Z,23.59
2018-07-28T02:37:59.836Z,23.62
2018-07-28T02:38:59.718Z,23.59
2018-07-28T02:39:59.773Z,23.59
2018-07-28T02:40:59.670Z,23.56
2018-07-28T02:41:59.753Z,23.50
2018-07-28T02:42:59.629Z,23.60
2018-07-28T02:43:59.669Z,23.50
2018-07-28T02:44:59.895Z,23.52
2018-07-28T02:45:59.597Z,23.44
2018-07-28T02:46:59.609Z,23.41
2018-07-28T02:47:59.613Z,23.47
2018-07-28T02:48:59.548Z,23.44
2018-07-28T02:49:59.523Z,23.52
2018-07-28T02:50:59.508Z,23.45
2018-07-28T02:51:59.536Z,23.53
2018-07-28T02:52:59.522Z,23.42
2018-07-28T02:54:00.677Z,23.41
2018-07-28T02:54:59.671Z,23.39
2018-07-28T02:56:00.492Z,23.42
2018-07-28T02:56:59.365Z,23.35
2018-07-28T02:57:59.384Z,23.41
2018-07-28T02:58:59.318Z,23.32
2018-07-28T02:59:59.394Z,23.37
2018-07-28T03:00:59.279Z,23.26
2018-07-28T03:02:00.353Z,23.29
2018-07-28T03:02:59.242Z,23.22
2018-07-28T03:03:59.362Z,23.18
2018-07-28T03:04:59.338Z,23.26
2018-07-28T03:05:59.245Z,23.18
2018-07-28T03:06:59.198Z,23.19
2018-07-28T03:08:00.176Z,23.16
2018-07-28T03:08:59.130Z,23.21
2018-07-28T03:09:59.161Z,23.16
2018-07-28T03:10:59.093Z,23.19
2018-07-28T03:11:59.219Z,23.21
2018-07-28T03:12:59.096Z,23.18
2018-07-28T03:13:59.120Z,23.21
2018-07-28T03:14:59.030Z,23.15
2018-07-28T03:15:59.128Z,23.11
2018-07-28T03:16:58.975Z,23.15
2018-07-28T03:17:58.998Z,23.11
2018-07-28T03:18:58.924Z,23.09
2018-07-28T03:19:59.030Z,23.15
2018-07-28T03:20:58.888Z,23.18
2018-07-28T03:21:59.970Z,23.16
2018-07-28T03:22:58.872Z,23.16
2018-07-28T03:23:58.942Z,23.16
2018-07-28T03:24:58.808Z,23.14
2018-07-28T03:25:58.852Z,23.11
2018-07-28T03:26:58.767Z,23.12
2018-07-28T03:27:59.796Z,23.14
2018-07-28T03:28:58.753Z,23.07
2018-07-28T03:29:58.712Z,23.14
2018-07-28T03:31:00.539Z,23.11
2018-07-28T03:31:58.704Z,23.06
2018-07-28T03:32:58.652Z,23.06
2018-07-28T03:33:58.709Z,23.09
2018-07-28T03:34:58.617Z,23.03
2018-07-28T03:35:58.685Z,23.00
2018-07-28T03:36:58.580Z,23.03
2018-07-28T03:37:58.600Z,23.01
2018-07-28T03:38:58.547Z,22.97
2018-07-28T03:39:58.511Z,22.88
2018-07-28T03:40:58.501Z,22.94
2018-07-28T03:42:45.221Z,22.79
2018-07-28T03:43:45.163Z,22.86
2018-07-28T03:45:39.602Z,22.86
2018-07-28T03:46:39.556Z,22.74
2018-07-28T03:48:33.971Z,22.81
2018-07-28T03:49:33.944Z,22.72
2018-07-28T03:50:33.945Z,22.72
2018-07-28T03:51:33.908Z,22.69
2018-07-28T03:52:33.974Z,22.57
2018-07-28T03:53:33.852Z,22.57
2018-07-28T03:54:33.854Z,22.64
2018-07-28T03:55:33.817Z,22.46
2018-07-28T03:56:33.815Z,22.44
2018-07-28T03:57:34.866Z,22.49
2018-07-28T03:58:33.761Z,22.48
2018-07-28T03:59:33.746Z,22.48
2018-07-28T04:00:34.780Z,22.39
2018-07-28T04:01:33.704Z,22.42
2018-07-28T04:02:33.763Z,22.33
2018-07-28T04:03:33.667Z,22.39
2018-07-28T04:04:33.681Z,22.44
2018-07-28T04:05:33.642Z,22.42
2018-07-28T04:06:33.603Z,22.39
2018-07-28T04:07:34.625Z,22.42
2018-07-28T04:08:33.560Z,22.44
2018-07-28T04:09:33.551Z,22.30
2018-07-28T04:10:33.528Z,22.38
2018-07-28T04:11:33.527Z,22.41
2018-07-28T04:12:33.481Z,22.45
2018-07-28T04:13:33.559Z,22.44
2018-07-28T04:14:33.441Z,22.49
2018-07-28T04:15:33.411Z,22.45
2018-07-28T04:16:33.401Z,22.44
2018-07-28T04:17:34.491Z,22.45
2018-07-28T04:18:33.364Z,22.45
2018-07-28T04:19:34.398Z,22.39
2018-07-28T04:20:33.319Z,22.56
2018-07-28T04:21:33.309Z,22.48
2018-07-28T04:22:33.295Z,22.42
2018-07-28T04:23:33.262Z,22.46
2018-07-28T04:24:33.247Z,22.56
2018-07-28T04:25:33.223Z,22.54
2018-07-28T04:26:33.198Z,22.57
2018-07-28T04:27:33.178Z,22.49
2018-07-28T04:28:33.258Z,22.59
2018-07-28T04:29:33.250Z,22.59
2018-07-28T04:30:33.116Z,22.59
2018-07-28T04:31:34.173Z,22.64
2018-07-28T04:32:33.078Z,22.59
2018-07-28T04:33:33.059Z,22.63
2018-07-28T04:34:33.036Z,22.59
2018-07-28T04:35:33.016Z,22.60
2018-07-28T04:36:33.074Z,22.61
2018-07-28T04:37:32.975Z,22.61
2018-07-28T04:38:32.965Z,22.61
2018-07-28T04:39:32.964Z,22.51
2018-07-28T04:40:32.914Z,22.46
2018-07-28T04:41:32.918Z,22.54
2018-07-28T04:42:32.875Z,22.57
2018-07-28T04:43:32.852Z,22.63
2018-07-28T04:44:32.850Z,22.66
2018-07-28T04:45:32.972Z,22.60
2018-07-28T04:46:32.797Z,22.63
2018-07-28T04:47:32.780Z,22.66
2018-07-28T04:48:32.852Z,22.66
2018-07-28T04:49:32.761Z,22.67
2018-07-28T04:50:32.725Z,22.63
2018-07-28T04:51:32.699Z,22.74
2018-07-28T04:52:32.677Z,22.70
2018-07-28T04:53:32.711Z,22.69
2018-07-28T04:54:32.716Z,22.70
2018-07-28T04:55:32.621Z,22.72
2018-07-28T04:56:32.599Z,22.79
2018-07-28T04:57:32.596Z,22.79
2018-07-28T04:58:32.554Z,22.74
2018-07-28T04:59:32.560Z,22.69
2018-07-28T05:00:32.518Z,22.72
2018-07-28T05:01:32.504Z,22.82
2018-07-28T05:02:32.500Z,22.70
2018-07-28T05:03:32.543Z,22.63
2018-07-28T05:04:32.446Z,22.70
2018-07-28T05:05:32.415Z,22.78
2018-07-28T05:06:32.463Z,22.72
2018-07-28T05:07:32.470Z,22.74
2018-07-28T05:08:32.354Z,22.75
2018-07-28T05:09:32.398Z,22.84
2018-07-28T05:10:32.332Z,22.81
2018-07-28T05:11:32.337Z,22.72
2018-07-28T05:12:32.323Z,22.72
2018-07-28T05:13:32.281Z,22.75
2018-07-28T05:14:32.336Z,22.60
2018-07-28T05:15:32.214Z,22.64
2018-07-28T05:16:32.233Z,22.61
2018-07-28T05:17:32.182Z,22.60
2018-07-28T05:18:32.168Z,22.57
2018-07-28T05:19:32.270Z,22.54
2018-07-28T05:21:17.774Z,22.57
2018-07-28T05:22:17.664Z,22.61
2018-07-28T05:23:17.640Z,22.76
2018-07-28T05:24:17.645Z,22.72
2018-07-28T05:25:17.601Z,22.75
2018-07-28T05:26:17.577Z,22.91
2018-07-28T05:27:17.566Z,22.93
2018-07-28T05:28:17.542Z,22.91
2018-07-28T05:29:17.522Z,23.00
2018-07-28T05:30:17.511Z,22.93
2018-07-28T05:31:17.485Z,22.97
2018-07-28T05:32:17.467Z,22.94
2018-07-28T05:33:17.441Z,23.03
2018-07-28T05:34:17.427Z,23.09
2018-07-28T05:35:17.481Z,23.07
2018-07-28T05:36:17.375Z,23.15
2018-07-28T05:37:17.364Z,23.21
2018-07-28T05:38:17.348Z,23.31
2018-07-28T05:39:17.412Z,23.35
2018-07-28T05:40:17.314Z,23.42
2018-07-28T05:41:17.328Z,23.44
2018-07-28T05:42:17.264Z,23.56
2018-07-28T05:43:18.365Z,23.59
2018-07-28T05:44:17.223Z,23.60
2018-07-28T05:45:17.290Z,23.60
2018-07-28T05:46:17.185Z,23.64
2018-07-28T05:47:17.180Z,23.68
2018-07-28T05:48:17.170Z,23.79
2018-07-28T05:49:17.133Z,23.77
2018-07-28T05:50:17.096Z,23.86
2018-07-28T05:51:17.091Z,23.82
2018-07-28T05:52:17.062Z,23.92
2018-07-28T05:53:17.044Z,23.97
2018-07-28T05:54:17.143Z,23.93
2018-07-28T05:55:17.000Z,23.96
2018-07-28T05:56:16.974Z,24.02
2018-07-28T05:57:16.956Z,23.99
2018-07-28T05:58:16.950Z,24.05
2018-07-28T05:59:16.930Z,23.93
2018-07-28T06:00:16.911Z,24.05
2018-07-28T06:01:16.878Z,24.14
2018-07-28T06:02:16.916Z,24.12
2018-07-28T06:03:16.835Z,24.08
2018-07-28T06:04:16.810Z,24.14
2018-07-28T06:05:16.795Z,24.26
2018-07-28T06:06:16.772Z,24.26
2018-07-28T06:07:16.780Z,24.21
2018-07-28T06:08:16.744Z,24.23
2018-07-28T06:09:16.801Z,24.31
2018-07-28T06:10:16.707Z,24.31
2018-07-28T06:11:16.720Z,24.16
2018-07-28T06:12:16.649Z,24.37
2018-07-28T06:13:17.758Z,24.27
2018-07-28T06:14:16.636Z,24.34
2018-07-28T06:15:16.630Z,24.39
2018-07-28T06:16:16.589Z,24.29
2018-07-28T06:17:16.667Z,24.42
2018-07-28T06:18:16.541Z,24.45
2018-07-28T06:19:17.514Z,24.49
2018-07-28T06:20:16.515Z,24.45
2018-07-28T06:21:16.584Z,24.56
2018-07-28T06:22:16.454Z,24.52
2018-07-28T06:23:16.477Z,24.56
2018-07-28T06:24:16.405Z,24.56
2018-07-28T06:25:16.495Z,24.59
2018-07-28T06:26:16.453Z,24.63
2018-07-28T06:28:06.450Z,24.68
2018-07-28T06:29:06.397Z,24.74
2018-07-28T06:30:06.386Z,24.87
2018-07-28T06:31:06.357Z,24.77
2018-07-28T06:32:06.402Z,24.84
2018-07-28T06:33:06.320Z,24.84
2018-07-28T06:34:06.310Z,24.84
2018-07-28T06:35:06.283Z,24.89
2018-07-28T06:36:06.301Z,24.87
2018-07-28T06:37:06.230Z,24.87
2018-07-28T06:38:06.336Z,24.98
2018-07-28T06:39:06.206Z,25.12
2018-07-28T06:40:07.288Z,25.12
2018-07-28T06:41:06.162Z,25.05
2018-07-28T06:42:06.214Z,25.20
2018-07-28T06:43:06.113Z,25.26
2018-07-28T06:44:06.143Z,25.35
2018-07-28T06:45:06.073Z,25.36
2018-07-28T06:46:06.148Z,25.49
2018-07-28T06:47:06.046Z,25.54
2018-07-28T06:48:06.068Z,25.57
2018-07-28T06:49:05.990Z,25.44
2018-07-28T06:50:06.083Z,25.53
2018-07-28T06:51:05.954Z,25.56
2018-07-28T06:52:05.992Z,25.57
2018-07-28T06:53:05.929Z,25.54
2018-07-28T06:54:05.995Z,25.56
2018-07-28T06:55:05.873Z,25.60
2018-07-28T06:56:05.917Z,25.67
2018-07-28T06:57:05.823Z,25.71
2018-07-28T06:58:05.919Z,25.79
2018-07-28T06:59:05.796Z,25.81
2018-07-28T07:00:05.835Z,26.00
2018-07-28T07:01:05.751Z,26.13
2018-07-28T07:02:05.850Z,26.16
2018-07-28T07:03:05.716Z,26.23
2018-07-28T07:04:05.775Z,26.32
2018-07-28T07:05:05.698Z,26.38
2018-07-28T07:06:05.654Z,26.46
2018-07-28T07:07:05.645Z,26.47
2018-07-28T07:08:05.700Z,26.46
2018-07-28T07:09:05.601Z,26.39
2018-07-28T07:10:05.613Z,26.42
2018-07-28T07:11:05.574Z,26.28
2018-07-28T07:12:05.614Z,26.36
2018-07-28T07:13:05.523Z,26.28
2018-07-28T07:14:05.633Z,26.19
2018-07-28T07:15:05.536Z,26.17
2018-07-28T07:16:05.550Z,26.16
2018-07-28T07:17:05.494Z,26.12
2018-07-28T07:18:05.458Z,26.09
2018-07-28T07:19:05.528Z,26.17
2018-07-28T07:20:05.464Z,26.20
2018-07-28T07:21:05.370Z,26.21
2018-07-28T07:22:05.377Z,26.35
2018-07-28T07:23:05.344Z,26.28
2018-07-28T07:24:05.392Z,26.41
2018-07-28T07:25:05.281Z,26.38
2018-07-28T07:26:05.299Z,26.44
2018-07-28T07:27:05.234Z,26.32
2018-07-28T07:28:05.228Z,26.49
2018-07-28T07:29:05.199Z,26.38
2018-07-28T07:30:05.275Z,26.32
2018-07-28T07:31:51.096Z,26.17
2018-07-28T07:32:51.055Z,26.19
2018-07-28T07:33:51.036Z,26.20
2018-07-28T07:34:51.080Z,26.16
2018-07-28T07:35:50.989Z,26.28
2018-07-28T07:36:50.971Z,26.38
2018-07-28T07:37:50.954Z,26.39
2018-07-28T07:38:51.047Z,26.50
2018-07-28T07:39:50.911Z,26.42
2018-07-28T07:40:50.893Z,26.50
2018-07-28T07:41:50.863Z,26.39
2018-07-28T07:42:50.855Z,26.39
2018-07-28T07:43:50.838Z,26.28
2018-07-28T07:44:50.811Z,26.31
2018-07-28T07:45:50.787Z,26.41
2018-07-28T07:46:50.920Z,26.36
2018-07-28T07:47:50.736Z,26.39
2018-07-28T07:48:50.735Z,26.53
2018-07-28T07:49:50.718Z,26.71
2018-07-28T07:50:50.692Z,26.64
2018-07-28T07:51:50.664Z,26.79
2018-07-28T07:52:50.640Z,26.91
2018-07-28T07:53:50.677Z,26.98
2018-07-28T07:54:50.601Z,26.88
2018-07-28T07:55:50.587Z,26.75
2018-07-28T07:56:50.560Z,26.81
2018-07-28T07:57:50.545Z,26.87
2018-07-28T07:58:50.523Z,26.96
2018-07-28T07:59:50.507Z,26.84
2018-07-28T08:00:50.482Z,26.88
2018-07-28T08:01:50.474Z,26.78
2018-07-28T08:02:50.486Z,26.71
2018-07-28T08:03:50.430Z,26.69
2018-07-28T08:04:50.425Z,26.68
2018-07-28T08:05:50.379Z,26.81
2018-07-28T08:06:50.354Z,26.84
2018-07-28T08:07:50.351Z,26.81
2018-07-28T08:08:50.326Z,26.81
2018-07-28T08:09:50.304Z,26.69
2018-07-28T08:10:50.282Z,26.65
2018-07-28T08:11:50.260Z,26.65
2018-07-28T08:12:50.237Z,26.39
2018-07-28T08:13:50.218Z,26.46
2018-07-28T08:14:50.276Z,26.42
2018-07-28T08:15:50.189Z,26.54
2018-07-28T08:16:50.173Z,26.51
2018-07-28T08:17:50.147Z,26.56
2018-07-28T08:18:50.205Z,26.64
2018-07-28T08:19:50.113Z,26.64
2018-07-28T08:20:51.143Z,26.59
2018-07-28T08:21:50.066Z,26.60
2018-07-28T08:22:50.059Z,26.61
2018-07-28T08:23:50.057Z,26.54
2018-07-28T08:24:50.005Z,26.53
2018-07-28T08:25:49.975Z,26.53
2018-07-28T08:26:49.982Z,26.51
2018-07-28T08:27:49.942Z,26.49
2018-07-28T08:28:49.938Z,26.38
2018-07-28T08:29:49.924Z,26.32
2018-07-28T08:30:49.891Z,26.21
2018-07-28T08:31:49.858Z,26.12
2018-07-28T08:32:49.982Z,26.09
2018-07-28T08:33:49.819Z,26.01
2018-07-28T08:34:50.900Z,25.94
2018-07-28T08:35:49.784Z,25.83
2018-07-28T08:37:35.984Z,25.85
2018-07-28T08:38:35.933Z,25.81
2018-07-28T08:40:29.712Z,25.63
2018-07-28T08:41:29.609Z,25.54
2018-07-28T08:42:29.595Z,25.64
2018-07-28T08:43:29.560Z,25.48
2018-07-28T08:44:29.536Z,25.51
2018-07-28T08:45:29.589Z,25.51
2018-07-28T08:46:29.497Z,25.61
2018-07-28T08:47:29.477Z,25.56
2018-07-28T08:48:30.534Z,25.51
2018-07-28T08:49:29.487Z,25.60
2018-07-28T08:50:29.437Z,25.51
2018-07-28T08:51:29.409Z,25.54
2018-07-28T08:52:29.446Z,25.61
2018-07-28T08:53:29.370Z,25.63
2018-07-28T08:54:29.467Z,25.81
2018-07-28T08:55:29.348Z,25.90
2018-07-28T08:56:29.293Z,25.83
2018-07-28T08:57:29.287Z,25.82
2018-07-28T08:58:34.908Z,25.83
2018-07-28T08:59:29.233Z,25.91
2018-07-28T09:00:29.233Z,25.89
2018-07-28T09:01:30.293Z,25.83
2018-07-28T09:02:29.210Z,25.86
2018-07-28T09:03:30.212Z,25.85
2018-07-28T09:05:15.665Z,26.03
2018-07-28T09:06:15.577Z,26.01
2018-07-28T09:07:15.507Z,26.16
2018-07-28T09:08:15.605Z,26.29
2018-07-28T09:09:15.456Z,26.36
2018-07-28T09:10:15.505Z,26.24
2018-07-28T09:11:15.440Z,26.41
2018-07-28T09:12:15.425Z,26.31
2018-07-28T09:13:20.369Z,26.41
2018-07-28T09:14:15.373Z,26.51
2018-07-28T09:15:16.473Z,26.54
2018-07-28T09:16:15.401Z,26.61
2018-07-28T09:17:15.358Z,26.60
2018-07-28T09:18:15.445Z,26.76
2018-07-28T09:19:15.427Z,26.83
2018-07-28T09:20:15.257Z,26.91
2018-07-28T09:21:15.260Z,26.96
2018-07-28T09:22:15.276Z,26.90
2018-07-28T09:23:15.318Z,26.83
2018-07-28T09:24:15.204Z,26.86
2018-07-28T09:25:15.145Z,26.79
2018-07-28T09:26:15.197Z,26.83
2018-07-28T09:27:15.107Z,26.78
2018-07-28T09:28:15.215Z,26.86
2018-07-28T09:29:15.066Z,26.79
2018-07-28T09:30:15.126Z,26.84
2018-07-28T09:31:15.023Z,26.93
2018-07-28T09:32:16.057Z,26.90
2018-07-28T09:33:14.981Z,26.91
2018-07-28T09:34:15.044Z,27.02
2018-07-28T09:35:14.971Z,26.86
2018-07-28T09:36:14.979Z,26.91
2018-07-28T09:37:14.911Z,26.79
2018-07-28T09:38:14.958Z,26.75
2018-07-28T09:39:14.859Z,26.69
2018-07-28T09:40:15.919Z,26.53
2018-07-28T09:41:14.869Z,26.50
2018-07-28T09:42:14.813Z,26.34
2018-07-28T09:43:14.798Z,26.36
2018-07-28T09:44:15.856Z,26.36
2018-07-28T09:45:14.786Z,26.19
2018-07-28T09:46:14.775Z,26.06
2018-07-28T09:47:14.709Z,25.97
2018-07-28T09:48:14.682Z,25.75
2018-07-28T09:49:14.667Z,25.61
2018-07-28T09:50:14.640Z,25.59
2018-07-28T09:51:14.660Z,25.51
2018-07-28T09:53:01.342Z,25.35
2018-07-28T09:54:01.327Z,25.24
2018-07-28T09:55:01.472Z,25.31
2018-07-28T09:56:01.265Z,25.30
2018-07-28T09:57:01.284Z,25.31
2018-07-28T09:58:01.225Z,25.16
2018-07-28T09:59:01.182Z,25.17
2018-07-28T10:00:01.181Z,25.22
2018-07-28T10:01:17.791Z,25.22
2018-07-28T10:02:01.158Z,25.29
2018-07-28T10:03:12.779Z,25.26
2018-07-28T10:04:01.095Z,25.23
2018-07-28T10:05:01.118Z,25.16
2018-07-28T10:06:01.048Z,25.08
2018-07-28T10:07:01.035Z,24.99
2018-07-28T10:08:01.021Z,24.98
2018-07-28T10:09:01.046Z,24.92
2018-07-28T10:10:00.977Z,24.97
2018-07-28T10:11:03.007Z,24.93
2018-07-28T10:12:00.941Z,24.92
2018-07-28T10:13:11.829Z,24.89
2018-07-28T10:14:01.099Z,24.86
2018-07-28T10:15:01.184Z,24.74
2018-07-28T10:16:01.047Z,24.70
2018-07-28T10:17:02.281Z,24.70
2018-07-28T10:18:01.103Z,24.60
2018-07-28T10:23:40.424Z,24.60
2018-07-28T10:24:33.289Z,24.64
2018-07-28T10:25:33.559Z,24.66
2018-07-28T10:26:33.595Z,24.71
2018-07-28T10:27:33.511Z,24.64
2018-07-28T10:28:38.208Z,24.79
2018-07-28T10:29:33.371Z,24.84
2018-07-28T10:30:33.551Z,24.87
2018-07-28T10:31:33.327Z,24.98
2018-07-28T10:32:35.481Z,25.05
2018-07-28T10:33:33.408Z,25.05
2018-07-28T10:44:04.635Z,25.48
2018-07-28T10:45:04.597Z,25.51
2018-07-28T10:46:04.673Z,25.63
2018-07-28T10:47:04.547Z,25.61
2018-07-28T10:48:09.982Z,25.60
2018-07-28T10:49:04.400Z,25.61
2018-07-28T10:50:10.934Z,25.63
2018-07-28T10:51:04.394Z,25.66
2018-07-28T10:52:10.013Z,25.61
2018-07-28T10:53:04.463Z,25.67
2018-07-28T10:54:04.496Z,25.74
2018-07-28T10:55:04.382Z,25.79
2018-07-28T10:56:09.161Z,25.91
2018-07-28T10:57:04.357Z,25.93
2018-07-28T10:58:26.451Z,25.97
2018-07-28T10:59:04.417Z,26.04
2018-07-28T11:00:25.058Z,26.06
2018-07-28T11:01:04.265Z,25.91
2018-07-28T11:02:06.179Z,26.19
2018-07-28T11:10:46.946Z,26.69
2018-07-28T11:11:45.537Z,26.69
2018-07-28T11:12:45.569Z,26.83
2018-07-28T11:13:45.463Z,26.93
2018-07-28T11:14:45.584Z,27.05
2018-07-28T11:15:45.519Z,27.06
2018-07-28T11:16:45.602Z,27.03
2018-07-28T11:17:45.471Z,27.12
2018-07-28T11:18:45.572Z,27.08
2018-07-28T11:19:45.432Z,27.02
2018-07-28T11:20:45.524Z,27.16
2018-07-28T11:21:45.397Z,27.12
2018-07-28T11:22:45.435Z,26.81
2018-07-28T11:23:45.366Z,26.69
2018-07-28T11:24:45.342Z,26.73
2018-07-28T11:25:45.306Z,26.71
2018-07-28T11:26:45.360Z,26.86
2018-07-28T11:27:45.521Z,26.83
2018-07-28T11:28:45.270Z,26.86
2018-07-28T11:29:45.240Z,26.83
2018-07-28T11:30:45.330Z,26.88
2018-07-28T11:31:45.217Z,26.91
2018-07-28T11:32:45.327Z,27.05
2018-07-28T11:33:45.040Z,27.08
2018-07-28T11:34:45.204Z,27.20
2018-07-28T11:35:45.009Z,27.18
2018-07-28T11:36:45.117Z,27.24
2018-07-28T11:37:45.364Z,27.30
2018-07-28T11:38:45.112Z,27.31
2018-07-28T11:39:45.185Z,27.55
2018-07-28T11:40:45.093Z,27.66
2018-07-28T11:41:45.098Z,27.81
2018-07-28T11:42:45.085Z,28.01
2018-07-28T11:43:44.948Z,28.18
2018-07-28T11:44:44.957Z,27.95
2018-07-28T11:45:44.973Z,28.05
2018-07-28T11:46:44.989Z,27.98
2018-07-28T11:47:44.862Z,28.02
2018-07-28T11:48:44.894Z,28.02
2018-07-28T11:49:44.749Z,28.03
2018-07-28T11:50:44.912Z,28.03
2018-07-28T11:51:44.708Z,28.05
2018-07-28T11:52:44.804Z,28.05
2018-07-28T11:53:44.646Z,28.20
2018-07-28T11:54:44.827Z,28.14
2018-07-28T11:55:44.709Z,28.33
2018-07-28T11:56:44.731Z,28.20
2018-07-28T11:57:44.567Z,28.40
2018-07-28T11:58:44.754Z,28.42
2018-07-28T11:59:44.520Z,28.45
2018-07-28T12:00:44.658Z,28.65
2018-07-28T12:01:44.591Z,28.65
2018-07-28T12:02:44.570Z,28.79
2018-07-28T12:03:44.436Z,28.62
2018-07-28T12:04:44.582Z,28.52
2018-07-28T12:05:44.499Z,28.33
2018-07-28T12:06:44.488Z,28.23
2018-07-28T12:07:44.452Z,28.05
2018-07-28T12:08:44.499Z,27.90
2018-07-28T12:09:44.341Z,27.77
2018-07-28T12:10:44.316Z,27.81
2018-07-28T12:11:44.628Z,27.84
2018-07-28T12:12:44.426Z,27.78
2018-07-28T12:13:44.268Z,27.96
2018-07-28T12:14:44.339Z,28.14
2018-07-28T12:16:34.624Z,28.51
2018-07-28T12:17:34.653Z,28.57
2018-07-28T12:18:34.855Z,28.52
2018-07-28T12:19:34.925Z,28.35
2018-07-28T12:20:34.728Z,28.33
2018-07-28T12:21:34.901Z,28.36
2018-07-28T12:22:34.772Z,28.35
2018-07-28T12:23:34.747Z,28.35
2018-07-28T12:24:34.778Z,28.20
2018-07-28T12:25:34.763Z,28.20
2018-07-28T12:26:34.593Z,28.23
2018-07-28T12:27:34.662Z,28.11
2018-07-28T12:28:34.677Z,28.14
2018-07-28T12:29:34.890Z,28.20
2018-07-28T12:30:34.618Z,28.27
2018-07-28T12:31:34.621Z,28.38
2018-07-28T12:32:34.583Z,28.64
2018-07-28T12:33:34.528Z,28.85
2018-07-28T12:34:34.473Z,28.91
2018-07-28T12:35:34.437Z,28.80
2018-07-28T12:36:34.502Z,28.65
2018-07-28T12:37:34.598Z,28.79
2018-07-28T12:38:34.462Z,28.80
2018-07-28T12:39:34.480Z,29.02
2018-07-28T12:40:34.425Z,29.07
2018-07-28T12:41:34.379Z,29.29
2018-07-28T12:42:34.268Z,29.36
2018-07-28T12:43:34.410Z,29.29
2018-07-28T12:44:34.233Z,29.42
2018-07-28T12:45:34.322Z,29.35
2018-07-28T12:46:34.228Z,29.37
2018-07-28T12:47:34.174Z,29.41
2018-07-28T12:48:34.344Z,29.39
2018-07-28T12:49:34.190Z,29.60
2018-07-28T12:50:34.279Z,29.74
2018-07-28T12:51:34.186Z,29.82
2018-07-28T12:52:34.283Z,29.89
2018-07-28T12:54:21.003Z,29.94
2018-07-28T12:55:20.868Z,29.92
2018-07-28T12:56:21.023Z,29.88
2018-07-28T12:57:21.141Z,29.64
2018-07-28T12:58:20.764Z,29.54
2018-07-28T12:59:20.832Z,29.35
2018-07-28T13:00:20.876Z,28.87
2018-07-28T13:01:20.684Z,28.77
2018-07-28T13:02:21.097Z,28.70
2018-07-28T13:03:20.652Z,28.70
2018-07-28T13:04:20.812Z,28.51
2018-07-28T13:05:20.702Z,28.52
2018-07-28T13:06:20.855Z,28.51
2018-07-28T13:07:20.675Z,28.58
2018-07-28T13:08:20.732Z,28.62
2018-07-28T13:09:20.631Z,28.77
2018-07-28T13:10:20.637Z,29.07
2018-07-28T13:11:20.588Z,29.23
2018-07-28T13:12:20.690Z,29.42
2018-07-28T13:13:20.547Z,29.54
2018-07-28T13:14:20.584Z,29.64
2018-07-28T13:15:20.404Z,29.57
2018-07-28T13:16:20.669Z,29.44
2018-07-28T13:17:20.463Z,29.57
2018-07-28T13:18:20.480Z,29.70
2018-07-28T13:19:20.436Z,29.85
2018-07-28T13:20:20.397Z,29.81
2018-07-28T13:21:20.387Z,29.99
2018-07-28T13:22:20.453Z,30.04
2018-07-28T13:23:20.274Z,30.22
2018-07-28T13:24:20.469Z,30.37